createdAt,value
2023-01-10T00:00:17.020Z,4.85
2023-01-10T00:01:19.915Z,3.88
2023-01-10T00:02:22.495Z,2.40
2023-01-10T00:03:24.957Z,3.75
2023-01-10T00:04:32.077Z,5.40
2023-01-10T00:05:38.594Z,5.22
2023-01-10T00:06:40.948Z,5.32
2023-01-10T00:07:44.552Z,3.17
2023-01-10T00:08:47.432Z,2.70
2023-01-10T00:09:49.976Z,3.85
2023-01-10T00:10:52.424Z,4.45
2023-01-10T00:12:15.495Z,4.03
2023-01-10T00:13:24.750Z,5.95
2023-01-10T00:14:30.549Z,3.33
2023-01-10T00:15:33.828Z,4.65
2023-01-10T00:16:40.203Z,3.25
2023-01-10T00:17:45.933Z,2.63
2023-01-10T00:18:48.890Z,4.57
2023-01-10T00:19:51.565Z,4.63
2023-01-10T00:20:57.923Z,4.43
2023-01-10T00:22:07.356Z,3.85
2023-01-10T00:23:10.977Z,4.93
2023-01-10T00:24:23.489Z,3.45
2023-01-10T00:26:28.130Z,4.10
2023-01-10T00:27:31.600Z,4.03
2023-01-10T00:28:34.746Z,4.78
2023-01-10T00:29:37.243Z,4.55
2023-01-10T00:30:39.695Z,3.60
2023-01-10T00:31:41.994Z,3.17
2023-01-10T00:32:45.013Z,2.58
2023-01-10T00:33:47.236Z,5.40
2023-01-10T00:34:49.566Z,5.85
2023-01-10T00:35:52.064Z,2.47
2023-01-10T00:36:54.211Z,4.13
2023-01-10T00:38:01.350Z,3.75
2023-01-10T00:39:04.337Z,2.22
2023-01-10T00:40:11.092Z,3.83
2023-01-10T00:41:31.881Z,5.13
2023-01-10T00:42:53.400Z,2.55
2023-01-10T00:43:58.774Z,3.75
2023-01-10T00:45:01.063Z,3.70
2023-01-10T00:46:03.568Z,4.70
2023-01-10T00:47:05.838Z,4.13
2023-01-10T00:48:08.048Z,3.33
2023-01-10T00:49:12.106Z,3.55
2023-01-10T00:50:14.696Z,4.13
2023-01-10T00:51:16.947Z,4.22
2023-01-10T00:52:19.212Z,4.82
2023-01-10T00:53:21.913Z,3.42
2023-01-10T00:54:24.209Z,3.97
2023-01-10T00:55:26.717Z,5.53
2023-01-10T00:56:29.113Z,6.25
2023-01-10T00:57:31.534Z,6.53
2023-01-10T00:58:33.996Z,3.28
2023-01-10T00:59:36.271Z,2.70
2023-01-10T01:00:38.896Z,3.47
2023-01-10T01:01:41.419Z,3.53
2023-01-10T01:02:43.996Z,2.40
2023-01-10T01:03:46.432Z,3.45
2023-01-10T01:04:48.651Z,4.50
2023-01-10T01:05:50.960Z,3.75
2023-01-10T01:06:53.112Z,2.53
2023-01-10T01:07:55.718Z,5.30
2023-01-10T01:08:57.938Z,5.28
2023-01-10T01:10:18.712Z,2.92
2023-01-10T01:11:20.962Z,3.00
2023-01-10T01:12:23.143Z,2.80
2023-01-10T01:13:25.624Z,2.30
2023-01-10T01:14:27.895Z,3.25
2023-01-10T01:15:30.324Z,3.15
2023-01-10T01:16:32.603Z,2.38
2023-01-10T01:17:34.868Z,3.05
2023-01-10T01:18:37.239Z,3.42
2023-01-10T01:19:39.620Z,3.10
2023-01-10T01:20:42.590Z,3.40
2023-01-10T01:21:44.863Z,3.40
2023-01-10T01:22:47.856Z,3.03
2023-01-10T01:23:51.045Z,4.22
2023-01-10T01:24:53.240Z,4.65
2023-01-10T01:25:56.988Z,2.95
2023-01-10T01:26:59.349Z,4.22
2023-01-10T01:28:01.851Z,2.72
2023-01-10T01:29:04.056Z,2.47
2023-01-10T01:30:07.527Z,3.50
2023-01-10T01:31:10.194Z,1.60
2023-01-10T01:32:12.465Z,3.20
2023-01-10T01:33:14.900Z,2.78
2023-01-10T01:34:17.275Z,3.85
2023-01-10T01:35:19.610Z,4.25
2023-01-10T01:36:21.839Z,3.28
2023-01-10T01:37:24.097Z,3.47
2023-01-10T01:38:26.392Z,2.75
2023-01-10T01:39:28.545Z,7.13
2023-01-10T01:40:30.832Z,3.92
2023-01-10T01:41:51.660Z,2.22
2023-01-10T01:42:55.888Z,2.47
2023-01-10T01:44:32.602Z,1.90
2023-01-10T01:45:38.256Z,2.28
2023-01-10T01:46:41.986Z,2.95
2023-01-10T01:47:53.948Z,2.95
2023-01-10T01:48:56.259Z,1.83
2023-01-10T01:49:58.450Z,1.60
2023-01-10T01:51:07.572Z,4.00
2023-01-10T01:52:21.584Z,2.55
2023-01-10T01:53:31.317Z,2.30
2023-01-10T01:54:34.517Z,2.35
2023-01-10T01:55:38.609Z,3.85
2023-01-10T01:56:55.754Z,3.10
2023-01-10T01:58:03.522Z,2.78
2023-01-10T01:59:13.075Z,2.53
2023-01-10T02:02:46.022Z,2.50
2023-01-10T02:04:03.040Z,3.38
2023-01-10T02:05:14.835Z,2.72
2023-01-10T02:06:19.965Z,3.17
2023-01-10T02:07:24.108Z,2.65
2023-01-10T02:08:26.618Z,3.10
2023-01-10T02:09:50.367Z,4.60
2023-01-10T02:11:06.212Z,3.28
2023-01-10T02:12:09.890Z,3.05
2023-01-10T02:13:15.832Z,2.75
2023-01-10T02:14:20.412Z,4.63
2023-01-10T02:15:22.660Z,2.50
2023-01-10T02:16:24.940Z,5.55
2023-01-10T02:17:27.089Z,3.00
2023-01-10T02:18:29.309Z,2.65
2023-01-10T02:20:06.219Z,4.18
2023-01-10T02:21:23.370Z,2.85
2023-01-10T02:23:02.692Z,4.18
2023-01-10T02:24:21.865Z,4.20
2023-01-10T02:25:42.573Z,4.15
2023-01-10T02:27:12.577Z,3.25
2023-01-10T02:28:39.469Z,4.63
2023-01-10T02:30:03.007Z,5.13
2023-01-10T02:31:23.671Z,5.78
2023-01-10T02:32:45.752Z,3.83
2023-01-10T02:34:12.334Z,3.30
2023-01-10T02:35:41.203Z,4.63
2023-01-10T02:37:17.334Z,4.90
2023-01-10T02:38:27.052Z,3.50
2023-01-10T02:39:48.245Z,3.33
2023-01-10T02:41:08.976Z,3.55
2023-01-10T02:42:21.369Z,3.65
2023-01-10T02:44:45.883Z,3.15
2023-01-10T02:45:55.063Z,4.38
2023-01-10T02:46:57.539Z,3.97
2023-01-10T02:47:59.827Z,3.03
2023-01-10T02:49:02.070Z,4.63
2023-01-10T02:50:22.780Z,3.83
2023-01-10T02:51:29.931Z,3.22
2023-01-10T02:52:32.428Z,3.30
2023-01-10T02:53:39.642Z,4.97
2023-01-10T02:54:42.208Z,5.32
2023-01-10T02:56:12.882Z,2.88
2023-01-10T02:57:43.315Z,6.00
2023-01-10T02:59:18.211Z,3.75
2023-01-10T03:00:29.425Z,2.35
2023-01-10T03:01:52.181Z,3.67
2023-01-10T03:03:16.833Z,4.45
2023-01-10T03:04:32.504Z,3.95
2023-01-10T03:05:59.571Z,4.95
2023-01-10T03:07:16.145Z,4.78
2023-01-10T03:08:32.257Z,3.75
2023-01-10T03:09:39.583Z,6.75
2023-01-10T03:10:52.625Z,4.65
2023-01-10T03:12:03.788Z,3.45
2023-01-10T03:13:12.637Z,6.38
2023-01-10T03:14:20.789Z,5.57
2023-01-10T03:15:27.688Z,6.82
2023-01-10T03:16:33.400Z,2.15
2023-01-10T03:17:37.042Z,3.78
2023-01-10T03:18:45.820Z,3.47
2023-01-10T03:19:52.262Z,2.90
2023-01-10T03:20:56.998Z,4.03
2023-01-10T03:22:02.414Z,4.72
2023-01-10T03:23:06.850Z,4.45
2023-01-10T03:24:20.559Z,2.50
2023-01-10T03:25:28.230Z,3.85
2023-01-10T03:26:58.574Z,4.85
2023-01-10T03:28:11.225Z,3.15
2023-01-10T03:29:19.426Z,3.00
2023-01-10T03:30:30.453Z,1.88
2023-01-10T03:31:42.141Z,3.17
2023-01-10T03:32:44.388Z,2.55
2023-01-10T03:33:47.643Z,3.70
2023-01-10T03:34:50.143Z,4.63
2023-01-10T03:36:10.343Z,2.95
2023-01-10T03:37:25.645Z,4.53
2023-01-10T03:39:00.864Z,4.90
2023-01-10T03:40:05.906Z,2.63
2023-01-10T03:41:33.967Z,2.58
2023-01-10T03:43:16.564Z,4.68
2023-01-10T03:44:43.762Z,4.18
2023-01-10T03:46:09.630Z,2.75
2023-01-10T03:47:41.187Z,4.03
2023-01-10T03:48:45.926Z,3.38
2023-01-10T03:50:02.732Z,4.90
2023-01-10T03:51:06.390Z,6.03
2023-01-10T03:52:13.725Z,4.82
2023-01-10T03:53:16.575Z,4.90
2023-01-10T03:54:18.792Z,3.45
2023-01-10T03:55:25.777Z,5.13
2023-01-10T03:56:28.022Z,4.43
2023-01-10T03:57:30.356Z,5.85
2023-01-10T03:58:32.681Z,4.93
2023-01-10T03:59:35.064Z,5.72
2023-01-10T04:00:37.324Z,3.65
2023-01-10T04:01:39.655Z,7.65
2023-01-10T04:02:42.419Z,7.22
2023-01-10T04:03:44.829Z,9.30
2023-01-10T04:04:47.051Z,5.70
2023-01-10T04:05:49.372Z,6.53
2023-01-10T04:06:51.545Z,5.38
2023-01-10T04:07:53.840Z,4.20
2023-01-10T04:08:56.282Z,9.07
2023-01-10T04:09:58.485Z,5.85
2023-01-10T04:11:00.657Z,8.60
2023-01-10T04:12:03.253Z,5.43
2023-01-10T04:13:05.722Z,8.10
2023-01-10T04:14:08.013Z,7.63
2023-01-10T04:15:10.606Z,12.27
2023-01-10T04:16:12.855Z,10.13
2023-01-10T04:17:16.765Z,8.50
2023-01-10T04:18:19.224Z,11.13
2023-01-10T04:19:21.839Z,7.47
2023-01-10T04:20:27.837Z,7.72
2023-01-10T04:21:30.049Z,8.40
2023-01-10T04:22:32.294Z,6.15
2023-01-10T04:23:34.532Z,9.70
2023-01-10T04:24:37.162Z,8.57
2023-01-10T04:25:39.449Z,9.30
2023-01-10T04:26:41.659Z,10.98
2023-01-10T04:27:43.854Z,9.27
2023-01-10T04:28:46.089Z,12.45
2023-01-10T04:29:48.326Z,8.95
2023-01-10T04:30:50.848Z,11.73
2023-01-10T04:31:53.528Z,9.63
2023-01-10T04:32:55.889Z,13.57
2023-01-10T04:33:58.182Z,10.45
2023-01-10T04:35:00.435Z,8.23
2023-01-10T04:36:02.687Z,10.32
2023-01-10T04:37:05.398Z,12.98
2023-01-10T04:38:07.609Z,9.68
2023-01-10T04:39:09.788Z,16.63
2023-01-10T04:40:13.082Z,15.73
2023-01-10T04:41:15.382Z,11.52
2023-01-10T04:42:17.957Z,15.93
2023-01-10T04:43:20.196Z,15.90
2023-01-10T04:44:22.542Z,10.40
2023-01-10T04:45:24.844Z,17.80
2023-01-10T04:46:27.096Z,15.98
2023-01-10T04:47:29.331Z,14.48
2023-01-10T04:48:31.517Z,15.20
2023-01-10T04:49:33.677Z,12.18
2023-01-10T04:50:35.967Z,15.10
2023-01-10T04:51:38.453Z,17.80
2023-01-10T04:52:41.890Z,14.90
2023-01-10T04:53:44.119Z,12.25
2023-01-10T04:54:46.331Z,14.82
2023-01-10T04:55:49.010Z,14.38
2023-01-10T04:56:51.209Z,14.90
2023-01-10T04:57:53.446Z,19.25
2023-01-10T04:58:56.406Z,13.82
2023-01-10T04:59:58.664Z,13.75
2023-01-10T05:01:06.582Z,17.13
2023-01-10T05:02:08.945Z,18.02
2023-01-10T05:03:11.363Z,17.25
2023-01-10T05:04:13.941Z,16.38
2023-01-10T05:05:16.259Z,18.25
2023-01-10T05:06:19.634Z,20.15
2023-01-10T05:07:21.926Z,19.80
2023-01-10T05:08:24.153Z,19.88
2023-01-10T05:09:26.338Z,15.45
2023-01-10T05:10:28.582Z,17.33
2023-01-10T05:11:30.801Z,18.63
2023-01-10T05:12:33.095Z,19.15
2023-01-10T05:13:35.322Z,18.63
2023-01-10T05:14:37.531Z,16.55
2023-01-10T05:15:39.753Z,19.13
2023-01-10T05:16:42.085Z,18.17
2023-01-10T05:17:44.312Z,20.88
2023-01-10T05:18:46.635Z,19.77
2023-01-10T05:19:48.789Z,22.10
2023-01-10T05:20:51.288Z,19.50
2023-01-10T05:21:53.572Z,25.98
2023-01-10T05:22:55.914Z,15.57
2023-01-10T05:23:58.140Z,17.58
2023-01-10T05:25:00.385Z,19.00
2023-01-10T05:26:13.528Z,24.80
2023-01-10T05:27:16.199Z,22.35
2023-01-10T05:28:18.364Z,20.05
2023-01-10T05:29:20.590Z,16.40
2023-01-10T05:30:22.898Z,21.70
2023-01-10T05:31:25.211Z,26.17
2023-01-10T05:32:30.173Z,21.20
2023-01-10T05:33:32.365Z,21.98
2023-01-10T05:34:35.172Z,22.52
2023-01-10T05:35:37.517Z,17.10
2023-01-10T05:36:40.023Z,15.93
2023-01-10T05:37:42.299Z,20.65
2023-01-10T05:38:44.622Z,24.10
2023-01-10T05:39:47.051Z,24.38
2023-01-10T05:40:55.957Z,17.63
2023-01-10T05:41:58.257Z,18.83
2023-01-10T05:43:00.475Z,17.55
2023-01-10T05:44:02.788Z,17.20
2023-01-10T05:45:05.647Z,21.55
2023-01-10T05:46:08.057Z,17.50
2023-01-10T05:47:10.283Z,14.55
2023-01-10T05:48:12.578Z,16.98
2023-01-10T05:49:14.838Z,22.10
2023-01-10T05:50:18.951Z,17.90
2023-01-10T05:51:21.401Z,19.90
2023-01-10T05:52:23.592Z,16.40
2023-01-10T05:53:25.988Z,18.85
2023-01-10T05:54:29.693Z,25.63
2023-01-10T05:55:32.445Z,22.10
2023-01-10T05:56:34.684Z,18.98
2023-01-10T05:57:36.956Z,20.98
2023-01-10T05:58:39.126Z,20.50
2023-01-10T05:59:41.427Z,17.20
2023-01-10T06:00:43.744Z,24.17
2023-01-10T06:01:45.991Z,23.10
2023-01-10T06:02:48.256Z,23.08
2023-01-10T06:03:50.498Z,20.20
2023-01-10T06:04:55.094Z,19.23
2023-01-10T06:05:57.467Z,16.48
2023-01-10T06:06:59.657Z,20.27
2023-01-10T06:08:01.916Z,16.35
2023-01-10T06:09:04.131Z,14.85
2023-01-10T06:10:06.659Z,18.45
2023-01-10T06:11:08.903Z,19.17
2023-01-10T06:12:11.075Z,21.08
2023-01-10T06:13:13.415Z,21.25
2023-01-10T06:14:19.348Z,18.77
2023-01-10T06:15:21.709Z,19.33
2023-01-10T06:16:24.494Z,20.95
2023-01-10T06:17:26.908Z,19.20
2023-01-10T06:18:29.091Z,16.55
2023-01-10T06:19:31.332Z,23.55
2023-01-10T06:20:33.629Z,23.75
2023-01-10T06:21:35.880Z,16.45
2023-01-10T06:22:41.333Z,20.23
2023-01-10T06:23:43.577Z,27.15
2023-01-10T06:24:46.062Z,19.45
2023-01-10T06:25:48.324Z,27.58
2023-01-10T06:26:50.494Z,19.17
2023-01-10T06:27:52.731Z,20.67
2023-01-10T06:28:55.125Z,24.77
2023-01-10T06:29:59.170Z,19.95
2023-01-10T06:31:01.407Z,23.08
2023-01-10T06:32:03.743Z,18.35
2023-01-10T06:33:07.711Z,23.25
2023-01-10T06:34:09.916Z,20.55
2023-01-10T06:35:12.193Z,17.67
2023-01-10T06:36:14.388Z,21.13
2023-01-10T06:37:18.723Z,11.98
2023-01-10T06:38:22.271Z,16.70
2023-01-10T06:39:24.450Z,20.38
2023-01-10T06:40:27.618Z,18.38
2023-01-10T06:41:29.874Z,20.50
2023-01-10T06:42:32.317Z,19.05
2023-01-10T06:43:34.530Z,21.52
2023-01-10T06:44:36.849Z,24.27
2023-01-10T06:45:39.096Z,17.25
2023-01-10T06:46:41.553Z,20.00
2023-01-10T06:47:43.747Z,26.60
2023-01-10T06:48:47.413Z,19.92
2023-01-10T06:49:49.571Z,19.33
2023-01-10T06:50:51.758Z,19.05
2023-01-10T06:51:54.068Z,21.05
2023-01-10T06:53:01.704Z,19.58
2023-01-10T06:54:04.154Z,19.40
2023-01-10T06:55:07.236Z,17.02
2023-01-10T06:56:10.111Z,20.17
2023-01-10T06:57:12.261Z,16.38
2023-01-10T06:58:18.279Z,20.20
2023-01-10T06:59:20.589Z,21.23
2023-01-10T07:00:23.446Z,17.88
2023-01-10T07:01:25.897Z,20.27
2023-01-10T07:02:28.339Z,18.73
2023-01-10T07:03:30.591Z,16.02
2023-01-10T07:04:32.927Z,18.33
2023-01-10T07:05:35.231Z,14.88
2023-01-10T07:06:39.252Z,24.38
2023-01-10T07:07:41.488Z,17.67
2023-01-10T07:08:45.723Z,24.45
2023-01-10T07:09:47.944Z,18.70
2023-01-10T07:10:50.212Z,19.08
2023-01-10T07:11:52.456Z,16.67
2023-01-10T07:12:55.709Z,18.17
2023-01-10T07:13:57.894Z,17.30
2023-01-10T07:15:00.090Z,18.83
2023-01-10T07:16:07.213Z,19.02
2023-01-10T07:17:09.431Z,17.80
2023-01-10T07:18:12.837Z,16.90
2023-01-10T07:19:17.474Z,21.25
2023-01-10T07:20:19.902Z,17.80
2023-01-10T07:21:22.242Z,18.98
2023-01-10T07:22:24.516Z,15.52
2023-01-10T07:23:26.766Z,18.00
2023-01-10T07:24:28.966Z,24.20
2023-01-10T07:25:31.253Z,16.95
2023-01-10T07:26:33.528Z,17.70
2023-01-10T07:27:35.946Z,20.33
2023-01-10T07:28:38.158Z,20.67
2023-01-10T07:29:40.994Z,22.33
2023-01-10T07:30:43.348Z,16.70
2023-01-10T07:31:45.804Z,16.30
2023-01-10T07:32:54.025Z,17.38
2023-01-10T07:33:56.243Z,19.45
2023-01-10T07:34:58.552Z,16.80
2023-01-10T07:36:01.701Z,15.07
2023-01-10T07:37:04.017Z,20.23
2023-01-10T07:38:06.760Z,16.58
2023-01-10T07:39:09.062Z,24.83
2023-01-10T07:40:11.778Z,19.05
2023-01-10T07:41:14.064Z,22.25
2023-01-10T07:42:16.340Z,23.77
2023-01-10T07:43:18.630Z,18.33
2023-01-10T07:44:20.870Z,28.70
2023-01-10T07:45:23.296Z,25.23
2023-01-10T07:46:26.566Z,29.70
2023-01-10T07:47:28.848Z,20.83
2023-01-10T07:48:31.142Z,15.35
2023-01-10T07:49:33.353Z,23.85
2023-01-10T07:50:36.710Z,18.77
2023-01-10T07:51:39.011Z,15.93
2023-01-10T07:52:41.383Z,18.02
2023-01-10T07:53:43.804Z,20.65
2023-01-10T07:54:46.121Z,19.08
2023-01-10T07:55:48.570Z,18.58
2023-01-10T07:56:50.747Z,22.33
2023-01-10T07:57:53.085Z,20.58
2023-01-10T07:58:55.407Z,17.90
2023-01-10T07:59:57.627Z,19.77
2023-01-10T08:01:04.766Z,17.85
2023-01-10T08:02:10.057Z,20.02
2023-01-10T08:03:13.144Z,19.33
2023-01-10T08:04:15.487Z,17.88
2023-01-10T08:05:17.784Z,16.15
2023-01-10T08:06:20.078Z,20.75
2023-01-10T08:07:22.266Z,20.85
2023-01-10T08:08:24.485Z,24.00
2023-01-10T08:09:27.048Z,21.65
2023-01-10T08:10:29.432Z,20.38
2023-01-10T08:11:31.734Z,17.98
2023-01-10T08:12:33.959Z,15.50
2023-01-10T08:13:36.275Z,20.25
2023-01-10T08:14:38.476Z,19.35
2023-01-10T08:15:40.836Z,18.67
2023-01-10T08:16:43.142Z,14.75
2023-01-10T08:17:45.343Z,24.33
2023-01-10T08:18:48.172Z,19.50
2023-01-10T08:19:50.481Z,21.95
2023-01-10T08:20:54.276Z,17.13
2023-01-10T08:21:56.609Z,15.52
2023-01-10T08:22:59.520Z,15.93
2023-01-10T08:24:01.764Z,15.63
2023-01-10T08:25:04.301Z,15.60
2023-01-10T08:26:06.766Z,17.02
2023-01-10T08:27:09.081Z,18.58
2023-01-10T08:28:11.558Z,20.17
2023-01-10T08:29:13.791Z,21.02
2023-01-10T08:30:16.166Z,18.45
2023-01-10T08:31:18.433Z,20.75
2023-01-10T08:32:20.751Z,18.10
2023-01-10T08:33:24.036Z,18.10
2023-01-10T08:34:26.312Z,17.73
2023-01-10T08:35:28.506Z,21.85
2023-01-10T08:36:30.732Z,15.95
2023-01-10T08:37:33.451Z,23.00
2023-01-10T08:38:35.679Z,16.77
2023-01-10T08:39:39.227Z,21.13
2023-01-10T08:40:41.610Z,18.08
2023-01-10T08:41:43.965Z,20.35
2023-01-10T08:42:46.644Z,18.58
2023-01-10T08:43:50.450Z,20.33
2023-01-10T08:44:53.013Z,21.00
2023-01-10T08:45:55.241Z,15.95
2023-01-10T08:46:57.552Z,17.30
2023-01-10T08:47:59.969Z,18.25
2023-01-10T08:49:02.166Z,23.00
2023-01-10T08:50:05.929Z,18.73
2023-01-10T08:51:10.032Z,24.00
2023-01-10T08:52:12.528Z,17.08
2023-01-10T08:53:14.860Z,19.65
2023-01-10T08:54:17.159Z,17.45
2023-01-10T08:55:19.786Z,16.75
2023-01-10T08:56:21.946Z,22.05
2023-01-10T08:57:24.224Z,16.50
2023-01-10T08:58:26.531Z,18.60
2023-01-10T08:59:28.844Z,24.83
2023-01-10T09:00:31.155Z,16.70
2023-01-10T09:01:33.786Z,20.25
2023-01-10T09:02:36.089Z,18.98
2023-01-10T09:03:39.885Z,24.77
2023-01-10T09:04:42.110Z,20.02
2023-01-10T09:05:44.475Z,20.77
2023-01-10T09:06:46.707Z,21.77
2023-01-10T09:07:49.151Z,17.85
2023-01-10T09:08:51.743Z,16.83
2023-01-10T09:09:54.092Z,14.32
2023-01-10T09:11:00.199Z,18.00
2023-01-10T09:12:22.389Z,22.88
2023-01-10T09:13:25.143Z,21.70
2023-01-10T09:14:27.298Z,14.43
2023-01-10T09:15:32.959Z,20.60
2023-01-10T09:16:35.196Z,21.20
2023-01-10T09:17:37.407Z,19.08
2023-01-10T09:18:39.625Z,19.55
2023-01-10T09:19:41.805Z,19.65
2023-01-10T09:20:45.447Z,19.60
2023-01-10T09:21:47.709Z,16.27
2023-01-10T09:22:50.033Z,14.30
2023-01-10T09:23:52.280Z,18.05
2023-01-10T09:24:55.574Z,18.65
2023-01-10T09:25:59.830Z,14.73
2023-01-10T09:27:02.122Z,15.32
2023-01-10T09:28:05.146Z,14.48
2023-01-10T09:29:07.650Z,15.10
2023-01-10T09:30:11.082Z,16.92
2023-01-10T09:31:13.313Z,16.60
2023-01-10T09:32:15.632Z,17.00
2023-01-10T09:33:18.290Z,18.60
2023-01-10T09:34:20.560Z,12.90
2023-01-10T09:35:24.008Z,19.17
2023-01-10T09:36:26.209Z,17.85
2023-01-10T09:37:29.240Z,16.80
2023-01-10T09:38:31.452Z,10.90
2023-01-10T09:39:34.204Z,16.55
2023-01-10T09:40:55.034Z,17.27
2023-01-10T09:42:10.040Z,20.65
2023-01-10T09:43:40.163Z,15.43
2023-01-10T09:44:49.537Z,13.02
2023-01-10T09:46:19.243Z,13.20
2023-01-10T09:47:54.126Z,12.50
2023-01-10T09:49:00.903Z,18.33
2023-01-10T09:50:12.303Z,12.15
2023-01-10T09:51:36.575Z,15.85
2023-01-10T09:52:50.876Z,16.08
2023-01-10T09:54:10.084Z,14.57
2023-01-10T09:55:39.771Z,18.60
2023-01-10T09:56:42.582Z,13.30
2023-01-10T09:57:45.568Z,15.65
2023-01-10T09:58:50.176Z,15.20
2023-01-10T09:59:54.394Z,11.35
2023-01-10T10:01:14.582Z,14.82
2023-01-10T10:02:28.746Z,13.90
2023-01-10T10:03:54.328Z,11.82
2023-01-10T10:05:13.203Z,14.82
2023-01-10T10:06:15.656Z,13.45
2023-01-10T10:07:17.938Z,18.42
2023-01-10T10:08:20.796Z,12.18
2023-01-10T10:09:30.010Z,14.52
2023-01-10T10:10:39.739Z,8.50
2023-01-10T10:11:46.558Z,12.25
2023-01-10T10:13:08.040Z,6.90
2023-01-10T10:14:45.415Z,12.45
2023-01-10T10:16:02.852Z,10.48
2023-01-10T10:17:33.658Z,11.07
2023-01-10T10:18:50.235Z,9.88
2023-01-10T10:20:10.894Z,15.70
2023-01-10T10:21:28.479Z,10.55
2023-01-10T10:23:12.080Z,15.35
2023-01-10T10:24:32.001Z,12.32
2023-01-10T10:26:18.381Z,13.65
2023-01-10T10:27:32.823Z,14.48
2023-01-10T10:28:54.077Z,10.52
2023-01-10T10:30:15.551Z,11.07
2023-01-10T10:31:46.486Z,15.65
2023-01-10T10:33:19.634Z,14.98
2023-01-10T10:34:27.934Z,14.55
2023-01-10T10:35:37.197Z,10.55
2023-01-10T10:37:11.545Z,12.00
2023-01-10T10:38:29.703Z,16.48
2023-01-10T10:39:37.361Z,14.82
2023-01-10T10:40:43.951Z,13.38
2023-01-10T10:41:52.391Z,16.90
2023-01-10T10:42:57.009Z,12.40
2023-01-10T10:44:04.854Z,13.93
2023-01-10T10:45:18.109Z,14.07
2023-01-10T10:46:22.115Z,10.85
2023-01-10T10:47:27.626Z,10.15
2023-01-10T10:48:33.923Z,14.45
2023-01-10T10:49:56.861Z,13.52
2023-01-10T10:52:17.390Z,12.73
2023-01-10T10:53:19.706Z,16.00
2023-01-10T10:54:23.087Z,15.02
2023-01-10T10:55:31.457Z,16.73
2023-01-10T10:56:33.643Z,10.35
2023-01-10T10:57:39.976Z,14.45
2023-01-10T10:58:51.412Z,10.73
2023-01-10T10:59:54.049Z,11.73
2023-01-10T11:00:57.591Z,12.25
2023-01-10T11:02:00.745Z,12.82
2023-01-10T11:03:25.662Z,12.20
2023-01-10T11:04:29.208Z,10.15
2023-01-10T11:05:41.629Z,11.90
2023-01-10T11:07:54.348Z,13.82
2023-01-10T11:09:01.300Z,12.52
2023-01-10T11:10:33.528Z,8.25
2023-01-10T11:11:43.901Z,13.02
2023-01-10T11:12:50.992Z,8.38
2023-01-10T11:14:01.703Z,11.63
2023-01-10T11:15:04.403Z,14.40
2023-01-10T11:16:08.034Z,11.77
2023-01-10T11:17:28.444Z,11.25
2023-01-10T11:18:31.819Z,14.05
2023-01-10T11:19:34.216Z,13.45
2023-01-10T11:20:36.949Z,11.77
2023-01-10T11:21:41.062Z,11.13
2023-01-10T11:22:49.663Z,18.98
2023-01-10T11:23:56.812Z,14.35
2023-01-10T11:25:02.816Z,14.18
2023-01-10T11:26:08.445Z,13.57
2023-01-10T11:27:16.807Z,10.45
2023-01-10T11:28:26.017Z,14.75
2023-01-10T11:29:40.451Z,13.35
2023-01-10T11:30:48.499Z,16.90
2023-01-10T11:31:53.059Z,11.68
2023-01-10T11:33:04.369Z,11.35
2023-01-10T11:34:19.571Z,14.00
2023-01-10T11:35:35.378Z,17.48
2023-01-10T11:36:57.442Z,13.30
2023-01-10T11:38:02.777Z,15.73
2023-01-10T11:39:05.017Z,15.52
2023-01-10T11:40:23.909Z,14.77
2023-01-10T11:41:31.548Z,14.10
2023-01-10T11:42:34.078Z,13.13
2023-01-10T11:43:41.499Z,16.55
2023-01-10T11:44:43.745Z,11.32
2023-01-10T11:45:54.688Z,14.23
2023-01-10T11:47:04.349Z,12.48
2023-01-10T11:48:09.761Z,12.02
2023-01-10T11:49:19.785Z,11.20
2023-01-10T11:50:28.489Z,14.95
2023-01-10T11:51:36.524Z,17.42
2023-01-10T11:52:44.869Z,11.35
2023-01-10T11:53:51.001Z,11.38
2023-01-10T11:54:58.317Z,13.68
2023-01-10T11:56:02.220Z,14.27
2023-01-10T11:57:19.543Z,11.23
2023-01-10T11:58:22.062Z,14.90
2023-01-10T11:59:26.061Z,11.05
2023-01-10T12:00:40.528Z,14.40
2023-01-10T12:01:47.584Z,17.45
2023-01-10T12:02:52.438Z,14.60
2023-01-10T12:03:55.157Z,12.48
2023-01-10T12:05:01.695Z,12.27
2023-01-10T12:06:15.788Z,10.40
2023-01-10T12:07:19.039Z,16.20
2023-01-10T12:08:25.598Z,16.67
2023-01-10T12:09:39.577Z,12.32
2023-01-10T12:10:41.758Z,15.98
2023-01-10T12:11:44.095Z,14.73
2023-01-10T12:13:00.522Z,13.65
2023-01-10T12:14:02.831Z,14.32
2023-01-10T12:15:28.768Z,12.82
2023-01-10T12:16:33.812Z,12.50
2023-01-10T12:17:37.716Z,16.30
2023-01-10T12:18:39.945Z,12.73
2023-01-10T12:19:42.163Z,16.05
2023-01-10T12:20:50.828Z,12.13
2023-01-10T12:21:54.128Z,13.13
2023-01-10T12:23:00.476Z,12.23
2023-01-10T12:24:12.590Z,14.73
2023-01-10T12:25:22.258Z,15.07
2023-01-10T12:26:27.453Z,15.15
2023-01-10T12:27:30.359Z,11.77
2023-01-10T12:28:35.627Z,15.60
2023-01-10T12:29:44.112Z,12.63
2023-01-10T12:30:52.786Z,10.50
2023-01-10T12:31:56.959Z,13.00
2023-01-10T12:33:02.928Z,17.73
2023-01-10T12:34:15.282Z,11.57
2023-01-10T12:35:26.491Z,10.32
2023-01-10T12:36:42.528Z,11.60
2023-01-10T12:38:07.705Z,12.65
2023-01-10T12:39:21.533Z,15.60
2023-01-10T12:40:37.410Z,16.10
2023-01-10T12:42:01.265Z,15.20
2023-01-10T12:43:39.323Z,13.90
2023-01-10T12:44:44.206Z,11.52
2023-01-10T12:45:53.203Z,13.50
2023-01-10T12:47:16.540Z,12.00
2023-01-10T12:48:33.852Z,13.07
2023-01-10T12:49:44.704Z,12.18
2023-01-10T12:50:54.170Z,12.23
2023-01-10T12:52:03.838Z,13.40
2023-01-10T12:53:17.779Z,13.27
2023-01-10T12:54:24.964Z,10.07
2023-01-10T12:55:31.037Z,12.82
2023-01-10T12:56:33.426Z,10.48
2023-01-10T12:57:39.204Z,13.77
2023-01-10T12:58:53.274Z,10.50
2023-01-10T13:00:01.353Z,10.48
2023-01-10T13:01:05.463Z,14.50
2023-01-10T13:02:21.682Z,18.52
2023-01-10T13:03:29.173Z,14.02
2023-01-10T13:04:37.031Z,10.32
2023-01-10T13:05:39.332Z,12.02
2023-01-10T13:06:44.023Z,14.57
2023-01-10T13:07:48.587Z,9.60
2023-01-10T13:08:51.661Z,14.73
2023-01-10T13:09:54.351Z,9.50
2023-01-10T13:10:59.308Z,13.07
2023-01-10T13:12:10.860Z,11.50
2023-01-10T13:13:31.265Z,11.00
2023-01-10T13:14:54.100Z,15.82
2023-01-10T13:16:22.577Z,12.10
2023-01-10T13:17:33.763Z,13.43
2023-01-10T13:18:36.020Z,12.25
2023-01-10T13:19:38.335Z,9.68
2023-01-10T13:20:42.425Z,8.05
2023-01-10T13:21:45.843Z,10.25
2023-01-10T13:22:55.539Z,10.43
2023-01-10T13:24:03.295Z,10.20
2023-01-10T13:25:06.152Z,9.35
2023-01-10T13:26:09.505Z,10.75
2023-01-10T13:27:20.279Z,11.93
2023-01-10T13:28:30.508Z,12.38
2023-01-10T13:29:41.895Z,12.65
2023-01-10T13:30:44.411Z,8.73
2023-01-10T13:31:49.793Z,13.55
2023-01-10T13:33:01.524Z,15.10
2023-01-10T13:34:09.831Z,14.35
2023-01-10T13:35:19.491Z,14.52
2023-01-10T13:36:28.446Z,13.40
2023-01-10T13:37:37.037Z,9.30
2023-01-10T13:38:45.510Z,13.40
2023-01-10T13:39:59.768Z,15.70
2023-01-10T13:41:05.726Z,8.30
2023-01-10T13:42:26.413Z,9.45
2023-01-10T13:43:39.047Z,11.77
2023-01-10T13:45:00.192Z,8.38
2023-01-10T13:46:17.456Z,11.85
2023-01-10T13:47:44.447Z,9.32
2023-01-10T13:48:49.312Z,10.07
2023-01-10T13:49:51.532Z,7.45
2023-01-10T13:51:06.125Z,10.70
2023-01-10T13:52:40.765Z,10.45
2023-01-10T13:53:55.063Z,9.45
2023-01-10T13:55:00.290Z,11.82
2023-01-10T13:56:02.576Z,7.72
2023-01-10T13:57:43.552Z,9.98
2023-01-10T13:59:04.195Z,9.88
2023-01-10T14:00:48.276Z,11.80
2023-01-10T14:02:11.577Z,8.82
2023-01-10T14:03:52.705Z,11.45
2023-01-10T14:05:18.631Z,9.63
2023-01-10T14:06:29.690Z,10.15
2023-01-10T14:07:44.663Z,8.10
2023-01-10T14:08:53.337Z,8.88
2023-01-10T14:10:08.377Z,11.15
2023-01-10T14:11:13.347Z,14.13
2023-01-10T14:12:24.505Z,11.27
2023-01-10T14:13:26.728Z,11.20
2023-01-10T14:14:38.013Z,7.97
2023-01-10T14:15:43.641Z,8.10
2023-01-10T14:16:49.390Z,11.48
2023-01-10T14:17:57.880Z,8.73
2023-01-10T14:19:01.248Z,9.63
2023-01-10T14:20:14.365Z,13.88
2023-01-10T14:21:25.313Z,11.75
2023-01-10T14:22:33.842Z,14.00
2023-01-10T14:23:36.053Z,10.65
2023-01-10T14:24:50.899Z,13.77
2023-01-10T14:25:57.039Z,8.45
2023-01-10T14:27:01.472Z,12.10
2023-01-10T14:28:05.246Z,9.40
2023-01-10T14:29:13.799Z,8.45
2023-01-10T14:30:32.917Z,6.82
2023-01-10T14:31:39.176Z,7.03
2023-01-10T14:32:44.052Z,8.75
2023-01-10T14:33:47.461Z,9.55
2023-01-10T14:34:50.598Z,9.23
2023-01-10T14:36:03.420Z,9.80
2023-01-10T14:37:26.071Z,7.75
2023-01-10T14:38:31.520Z,6.70
2023-01-10T14:39:35.140Z,6.03
2023-01-10T14:40:50.863Z,9.20
2023-01-10T14:42:00.484Z,9.07